createdAt,value
2022-10-26T00:00:41.760Z,22.21
2022-10-26T00:05:44.176Z,22.16
2022-10-26T00:10:46.277Z,22.14
2022-10-26T00:15:48.279Z,22.16
2022-10-26T00:20:50.597Z,22.17
2022-10-26T00:25:59.129Z,22.10
2022-10-26T00:31:06.825Z,22.15
2022-10-26T00:36:10.302Z,22.09
2022-10-26T00:41:16.598Z,22.11
2022-10-26T00:46:26.689Z,22.10
2022-10-26T00:51:35.787Z,22.13
2022-10-26T00:56:38.003Z,22.12
2022-10-26T01:01:43.526Z,22.12
2022-10-26T01:06:46.887Z,22.13
2022-10-26T01:11:48.830Z,22.09
2022-10-26T01:16:50.734Z,22.15
2022-10-26T01:22:02.747Z,22.10
2022-10-26T01:27:25.411Z,22.10
2022-10-26T01:32:56.380Z,22.08
2022-10-26T01:38:08.799Z,22.07
2022-10-26T01:43:14.560Z,22.04
2022-10-26T01:48:19.537Z,22.11
2022-10-26T01:53:21.541Z,22.06
2022-10-26T01:58:37.451Z,22.08
2022-10-26T02:04:06.761Z,22.08
2022-10-26T02:09:12.045Z,22.07
2022-10-26T02:14:18.687Z,22.06
2022-10-26T02:19:34.024Z,22.13
2022-10-26T02:24:37.078Z,22.15
2022-10-26T02:29:39.965Z,22.04
2022-10-26T02:34:46.273Z,22.09
2022-10-26T02:39:51.673Z,22.11
2022-10-26T02:45:00.518Z,22.09
2022-10-26T02:50:02.787Z,22.02
2022-10-26T02:55:10.350Z,22.07
2022-10-26T03:00:15.656Z,22.12
2022-10-26T03:05:23.501Z,22.12
2022-10-26T03:10:25.972Z,22.11
2022-10-26T03:15:27.869Z,22.09
2022-10-26T03:20:29.804Z,22.11
2022-10-26T03:25:31.739Z,22.09
2022-10-26T03:30:33.803Z,22.14
2022-10-26T03:35:35.617Z,22.11
2022-10-26T03:40:37.376Z,22.07
2022-10-26T03:45:39.303Z,22.07
2022-10-26T03:50:41.413Z,22.04
2022-10-26T03:55:46.353Z,22.07
2022-10-26T04:00:48.575Z,22.05
2022-10-26T04:05:50.440Z,22.10
2022-10-26T04:10:52.341Z,22.19
2022-10-26T04:15:54.472Z,22.01
2022-10-26T04:20:56.289Z,22.12
2022-10-26T04:25:58.092Z,22.09
2022-10-26T04:30:59.889Z,22.06
2022-10-26T04:36:01.706Z,22.12
2022-10-26T04:41:03.959Z,22.01
2022-10-26T04:46:05.850Z,22.07
2022-10-26T04:51:07.668Z,22.05
2022-10-26T04:56:10.068Z,21.97
2022-10-26T05:01:12.607Z,21.97
2022-10-26T05:06:14.365Z,21.93
2022-10-26T05:11:16.252Z,22.03
2022-10-26T05:16:18.411Z,22.02
2022-10-26T05:21:20.182Z,22.05
2022-10-26T05:26:23.682Z,22.05
2022-10-26T05:31:25.677Z,22.03
2022-10-26T05:36:27.681Z,21.98
2022-10-26T05:41:29.523Z,22.06
2022-10-26T05:46:31.378Z,22.03
2022-10-26T05:51:35.341Z,22.05
2022-10-26T05:56:39.721Z,22.02
2022-10-26T06:01:52.312Z,22.03
2022-10-26T06:06:55.483Z,22.04
2022-10-26T06:11:57.590Z,21.85
2022-10-26T06:17:29.077Z,21.96
2022-10-26T06:23:00.701Z,21.84
2022-10-26T06:28:21.769Z,21.66
2022-10-26T06:33:29.516Z,21.85
2022-10-26T06:38:34.768Z,21.90
2022-10-26T06:43:36.899Z,21.98
2022-10-26T06:48:52.127Z,21.97
2022-10-26T06:54:03.097Z,22.02
2022-10-26T06:59:14.215Z,22.02
2022-10-26T07:04:15.966Z,22.07
2022-10-26T07:09:17.563Z,21.92
2022-10-26T07:14:19.310Z,21.78
2022-10-26T07:19:21.041Z,22.00
2022-10-26T07:24:23.789Z,21.79
2022-10-26T07:29:27.395Z,21.75
2022-10-26T07:34:29.328Z,21.82
2022-10-26T07:39:33.050Z,21.82
2022-10-26T07:44:34.876Z,21.85
2022-10-26T07:49:36.862Z,21.95
2022-10-26T07:54:38.727Z,22.04
2022-10-26T07:59:40.463Z,22.05
2022-10-26T08:04:42.235Z,22.08
2022-10-26T08:09:44.021Z,22.13
2022-10-26T08:14:46.536Z,22.12
2022-10-26T08:19:49.111Z,22.14
2022-10-26T08:24:50.824Z,22.08
2022-10-26T08:29:52.683Z,22.10
2022-10-26T08:34:54.601Z,22.11
2022-10-26T08:39:57.532Z,22.15
2022-10-26T08:45:07.925Z,22.17
2022-10-26T08:50:18.922Z,22.12
2022-10-26T08:55:33.480Z,22.09
2022-10-26T09:00:35.639Z,22.03
2022-10-26T09:05:44.450Z,22.07
2022-10-26T09:11:07.487Z,22.10
2022-10-26T09:16:31.143Z,22.00
2022-10-26T09:21:48.734Z,21.99
2022-10-26T09:26:55.120Z,22.01
2022-10-26T09:32:00.370Z,21.99
2022-10-26T09:37:15.476Z,22.06
2022-10-26T09:42:24.961Z,22.10
2022-10-26T09:47:38.102Z,22.07
2022-10-26T09:52:39.880Z,22.08
2022-10-26T09:57:47.832Z,22.08
2022-10-26T10:02:58.173Z,22.16
2022-10-26T10:08:18.373Z,22.17
2022-10-26T10:13:23.875Z,22.11
2022-10-26T10:18:25.979Z,22.12
2022-10-26T10:23:31.410Z,22.11
2022-10-26T10:28:34.224Z,22.12
2022-10-26T10:33:42.905Z,22.14
2022-10-26T10:38:46.804Z,22.11
2022-10-26T10:44:05.839Z,21.97
2022-10-26T10:49:20.504Z,22.01
2022-10-26T10:54:34.055Z,22.02
2022-10-26T10:59:46.490Z,22.03
2022-10-26T11:04:53.991Z,22.12
2022-10-26T11:10:00.713Z,22.08
2022-10-26T11:15:17.099Z,22.11
2022-10-26T11:20:22.895Z,22.18
2022-10-26T11:25:31.276Z,22.17
2022-10-26T11:30:36.843Z,22.09
2022-10-26T11:35:47.441Z,22.11
2022-10-26T11:41:23.328Z,22.15
2022-10-26T11:47:12.447Z,22.18
2022-10-26T11:52:20.664Z,22.08
2022-10-26T11:57:29.174Z,22.00
2022-10-26T12:02:36.323Z,22.10
2022-10-26T12:07:40.638Z,22.20
2022-10-26T12:12:50.223Z,22.16
2022-10-26T12:17:59.834Z,22.02
2022-10-26T12:23:05.272Z,22.15
2022-10-26T12:28:40.746Z,22.08
2022-10-26T12:33:51.935Z,22.06
2022-10-26T12:38:57.990Z,22.04
2022-10-26T12:44:24.164Z,22.00
2022-10-26T12:50:04.790Z,22.08
2022-10-26T12:55:12.993Z,22.03
2022-10-26T13:00:23.810Z,22.00
2022-10-26T13:05:50.426Z,22.03
2022-10-26T13:11:05.796Z,22.07
2022-10-26T13:16:11.856Z,22.07
2022-10-26T13:21:16.760Z,22.21
2022-10-26T13:26:20.485Z,22.13
2022-10-26T13:31:31.699Z,22.13
2022-10-26T13:36:39.329Z,22.13
2022-10-26T13:41:45.007Z,22.10
2022-10-26T13:46:53.456Z,22.07
2022-10-26T13:51:56.454Z,22.15
2022-10-26T13:57:13.718Z,22.02
2022-10-26T14:02:19.875Z,22.05
2022-10-26T14:07:26.080Z,22.16
2022-10-26T14:12:31.368Z,22.02
2022-10-26T14:17:33.584Z,22.03
2022-10-26T14:22:35.581Z,22.02
2022-10-26T14:27:39.695Z,22.01
2022-10-26T14:32:41.598Z,21.95
2022-10-26T14:38:12.242Z,22.02
2022-10-26T14:43:19.288Z,22.11
2022-10-26T14:48:35.548Z,22.06
2022-10-26T14:53:40.969Z,22.01
2022-10-26T14:58:43.130Z,22.02
2022-10-26T15:03:45.694Z,22.07
2022-10-26T15:09:03.381Z,21.98
2022-10-26T15:14:12.670Z,22.08
2022-10-26T15:19:24.019Z,22.09
2022-10-26T15:24:39.165Z,22.04
2022-10-26T15:29:42.971Z,22.07
2022-10-26T15:34:50.046Z,22.06
2022-10-26T15:39:51.978Z,22.04
2022-10-26T15:44:53.758Z,22.05
2022-10-26T15:49:55.778Z,22.18
2022-10-26T15:54:57.635Z,22.13
2022-10-26T15:59:59.732Z,22.11
2022-10-26T16:05:01.766Z,22.10
2022-10-26T16:10:03.804Z,22.07
2022-10-26T16:15:06.432Z,22.13
2022-10-26T16:20:19.880Z,22.12
2022-10-26T16:25:26.044Z,22.07
2022-10-26T16:30:30.791Z,22.12
2022-10-26T16:35:32.767Z,22.10
2022-10-26T16:40:34.509Z,22.06
2022-10-26T16:45:39.850Z,22.07
2022-10-26T16:50:41.703Z,22.17
2022-10-26T16:55:44.461Z,22.19
2022-10-26T17:00:46.243Z,22.10
2022-10-26T17:05:48.003Z,22.09
2022-10-26T17:10:49.727Z,22.07
2022-10-26T17:15:51.517Z,22.08
2022-10-26T17:20:53.340Z,22.00
2022-10-26T17:25:55.221Z,22.15
2022-10-26T17:31:11.726Z,22.03
2022-10-26T17:36:16.847Z,22.05
2022-10-26T17:41:20.140Z,22.10
2022-10-26T17:46:24.583Z,22.04
2022-10-26T17:51:27.816Z,22.02
2022-10-26T17:56:32.445Z,22.01
2022-10-26T18:01:34.323Z,22.13
2022-10-26T18:06:36.355Z,22.20
2022-10-26T18:11:38.157Z,22.23
2022-10-26T18:16:40.194Z,22.20
2022-10-26T18:21:41.966Z,22.00
2022-10-26T18:26:43.744Z,21.88
2022-10-26T18:31:46.217Z,21.96
2022-10-26T18:36:47.889Z,21.83
2022-10-26T18:41:49.672Z,21.76
2022-10-26T18:46:52.443Z,21.78
2022-10-26T18:51:54.444Z,21.99
2022-10-26T18:56:56.717Z,22.07
2022-10-26T19:01:58.579Z,22.12
2022-10-26T19:07:01.825Z,22.17
2022-10-26T19:12:04.549Z,22.17
2022-10-26T19:17:06.382Z,22.17
2022-10-26T19:22:08.118Z,22.18
2022-10-26T19:27:10.018Z,22.22
2022-10-26T19:32:12.666Z,22.22
2022-10-26T19:37:14.551Z,22.18
2022-10-26T19:42:16.586Z,22.12
2022-10-26T19:47:18.355Z,22.24
2022-10-26T19:52:20.454Z,22.19
2022-10-26T19:57:25.446Z,22.19
2022-10-26T20:02:28.076Z,22.22
2022-10-26T20:07:29.976Z,22.26
2022-10-26T20:12:31.974Z,22.22
2022-10-26T20:17:34.882Z,22.30
2022-10-26T20:22:36.785Z,22.24
2022-10-26T20:27:41.874Z,22.20
2022-10-26T20:32:43.649Z,22.23
2022-10-26T20:37:45.710Z,22.20
2022-10-26T20:48:12.150Z,22.21
2022-10-26T20:53:26.051Z,22.21
2022-10-26T20:58:56.606Z,22.22
2022-10-26T21:04:00.718Z,22.29
2022-10-26T21:09:02.614Z,22.24
2022-10-26T21:14:05.574Z,22.22
2022-10-26T21:19:08.708Z,22.19
2022-10-26T21:24:10.470Z,22.20
2022-10-26T21:29:12.492Z,22.23
2022-10-26T21:34:14.529Z,22.26
2022-10-26T21:39:16.281Z,22.29
2022-10-26T21:44:40.575Z,22.22
2022-10-26T21:54:43.429Z,22.18
2022-10-26T21:59:45.245Z,22.23
2022-10-26T22:04:46.983Z,22.19
2022-10-26T22:10:07.526Z,22.20
2022-10-26T22:15:10.952Z,22.26
2022-10-26T22:20:12.881Z,22.19
2022-10-26T22:25:14.809Z,22.18
2022-10-26T22:30:16.682Z,22.22
2022-10-26T22:35:28.942Z,22.17
2022-10-26T22:40:31.616Z,22.17
2022-10-26T22:45:33.605Z,22.20
2022-10-26T22:50:38.025Z,22.18
2022-10-26T22:55:42.667Z,22.12
2022-10-26T23:00:44.582Z,22.18
2022-10-26T23:05:49.620Z,22.16
2022-10-26T23:10:51.848Z,22.12
2022-10-26T23:15:53.851Z,22.24
2022-10-26T23:20:55.864Z,22.15
2022-10-26T23:26:10.133Z,22.14
2022-10-26T23:31:16.578Z,22.14
2022-10-26T23:36:18.999Z,22.24
2022-10-26T23:41:21.019Z,22.19
2022-10-26T23:46:22.881Z,22.21
2022-10-26T23:51:24.740Z,22.19
2022-10-26T23:56:26.785Z,22.24
